TimeMST,TemperatureF,Dew PointF,Humidity,Sea Level PressureIn,VisibilityMPH,Wind Direction,Wind SpeedMPH,Gust SpeedMPH,PrecipitationIn,Events,Conditions,WindDirDegrees,DateUTC
12:54 AM,42.1,14.0,32,29.96,10.0,SSE,3.5,-,N/A,,Clear,150,2013-04-21 07:54:00
1:54 AM,39.9,15.1,36,29.98,10.0,SSE,4.6,-,N/A,,Clear,150,2013-04-21 08:54:00
2:54 AM,34.0,15.1,46,30.00,10.0,SSW,3.5,-,N/A,,Clear,210,2013-04-21 09:54:00
3:54 AM,39.0,14.0,36,29.99,10.0,SSE,4.6,-,N/A,,Clear,160,2013-04-21 10:54:00
4:54 AM,37.9,15.1,39,29.99,10.0,South,10.4,-,N/A,,Clear,190,2013-04-21 11:54:00
5:54 AM,36.0,15.1,43,30.03,10.0,South,5.8,-,N/A,,Clear,190,2013-04-21 12:54:00
6:54 AM,39.0,16.0,39,30.07,10.0,NNW,3.5,-,N/A,,Clear,340,2013-04-21 13:54:00
7:54 AM,46.0,16.0,30,30.08,10.0,Calm,Calm,-,N/A,,Clear,0,2013-04-21 14:54:00
8:54 AM,53.1,16.0,23,30.08,10.0,Calm,Calm,-,N/A,,Clear,0,2013-04-21 15:54:00
9:54 AM,59.0,17.1,20,30.06,10.0,NW,5.8,-,N/A,,Clear,320,2013-04-21 16:54:00
10:54 AM,63.0,18.0,18,30.04,10.0,WNW,6.9,-,N/A,,Clear,300,2013-04-21 17:54:00
11:54 AM,64.0,15.1,15,30.01,10.0,Variable,3.5,-,N/A,,Clear,0,2013-04-21 18:54:00
12:54 PM,68.0,12.0,11,29.98,10.0,WNW,13.8,17.3,N/A,,Clear,300,2013-04-21 19:54:00
1:54 PM,71.1,12.0,10,29.96,10.0,WNW,16.1,23.0,N/A,,Clear,290,2013-04-21 20:54:00
2:54 PM,71.1,12.9,11,29.96,10.0,West,12.7,26.5,N/A,,Clear,280,2013-04-21 21:54:00
3:54 PM,72.0,12.9,10,29.91,10.0,NNW,11.5,19.6,N/A,,Clear,340,2013-04-21 22:54:00
4:54 PM,72.0,12.9,10,29.90,10.0,WNW,8.1,-,N/A,,Clear,290,2013-04-21 23:54:00
5:54 PM,70.0,12.9,11,29.91,10.0,NNW,4.6,-,N/A,,Clear,330,2013-04-22 00:54:00
6:54 PM,66.0,15.1,14,29.91,10.0,Calm,Calm,-,N/A,,Clear,0,2013-04-22 01:54:00
7:54 PM,60.1,16.0,18,29.93,10.0,SSW,10.4,-,N/A,,Clear,200,2013-04-22 02:54:00
8:54 PM,59.0,17.1,20,29.93,10.0,SW,12.7,-,N/A,,Clear,230,2013-04-22 03:54:00
9:54 PM,59.0,16.0,19,29.91,10.0,SW,16.1,-,N/A,,Clear,220,2013-04-22 04:54:00
10:54 PM,57.0,17.1,21,29.90,10.0,SW,16.1,-,N/A,,Clear,230,2013-04-22 05:54:00
11:54 PM,54.0,17.1,23,29.91,10.0,SW,13.8,-,N/A,,Clear,230,2013-04-22 06:54:00